createdAt,value
2018-11-01T00:01:43.946Z,1.10
2018-11-01T00:04:12.515Z,1.37
2018-11-01T00:06:40.057Z,1.00
2018-11-01T00:09:08.668Z,1.17
2018-11-01T00:11:36.212Z,1.10
2018-11-01T00:14:03.837Z,1.13
2018-11-01T00:16:31.422Z,1.17
2018-11-01T00:18:59.198Z,1.10
2018-11-01T00:21:26.717Z,1.20
2018-11-01T00:23:54.383Z,1.20
2018-11-01T00:26:21.891Z,1.00
2018-11-01T00:28:49.504Z,1.10
2018-11-01T00:31:17.048Z,1.10
2018-11-01T00:33:44.615Z,1.23
2018-11-01T00:36:12.311Z,1.10
2018-11-01T00:38:40.029Z,1.10
2018-11-01T00:41:07.616Z,1.10
2018-11-01T00:43:35.360Z,1.20
2018-11-01T00:46:03.063Z,1.10
2018-11-01T00:48:30.627Z,1.20
2018-11-01T00:50:58.344Z,1.10
2018-11-01T00:53:25.914Z,1.13
2018-11-01T00:55:53.468Z,1.07
2018-11-01T00:58:23.128Z,1.00
2018-11-01T01:00:59.109Z,1.10
2018-11-01T01:03:26.722Z,1.20
2018-11-01T01:05:54.446Z,1.20
2018-11-01T01:08:22.153Z,1.10
2018-11-01T01:10:49.744Z,0.90
2018-11-01T01:13:20.417Z,1.23
2018-11-01T01:15:48.029Z,0.80
2018-11-01T01:18:15.972Z,1.17
2018-11-01T01:20:43.499Z,0.97
2018-11-01T01:23:11.084Z,0.95
2018-11-01T01:25:38.641Z,0.90
2018-11-01T01:28:06.224Z,1.00
2018-11-01T01:30:33.848Z,1.20
2018-11-01T01:33:01.441Z,1.10
2018-11-01T01:35:28.978Z,0.97
2018-11-01T01:37:56.593Z,1.13
2018-11-01T01:40:25.260Z,1.10
2018-11-01T01:42:53.108Z,1.23
2018-11-01T01:45:21.290Z,1.30
2018-11-01T01:47:49.845Z,0.93
2018-11-01T01:50:17.345Z,1.10
2018-11-01T01:52:44.956Z,1.17
2018-11-01T01:55:12.500Z,1.27
2018-11-01T01:57:40.106Z,1.00
2018-11-01T02:00:07.638Z,1.20
2018-11-01T02:02:35.202Z,1.20
2018-11-01T02:05:02.776Z,1.10
2018-11-01T02:07:30.303Z,1.27
2018-11-01T02:09:57.885Z,1.20
2018-11-01T02:12:25.476Z,1.40
2018-11-01T02:14:53.046Z,1.10
2018-11-01T02:17:20.573Z,1.27
2018-11-01T02:19:48.156Z,1.30
2018-11-01T02:22:15.765Z,1.30
2018-11-01T02:24:43.328Z,1.10
2018-11-01T02:27:10.893Z,1.20
2018-11-01T02:29:38.402Z,1.00
2018-11-01T02:32:05.992Z,1.10
2018-11-01T02:34:33.577Z,1.15
2018-11-01T02:37:01.097Z,1.13
2018-11-01T02:39:28.664Z,1.30
2018-11-01T02:41:56.234Z,1.40
2018-11-01T02:44:23.834Z,1.30
2018-11-01T02:46:51.387Z,1.17
2018-11-01T02:49:19.008Z,1.30
2018-11-01T02:51:46.557Z,1.30
2018-11-01T02:54:14.117Z,1.00
2018-11-01T02:56:41.636Z,1.27
2018-11-01T02:59:09.187Z,1.20
2018-11-01T03:01:36.759Z,1.20
2018-11-01T03:04:04.289Z,1.40
2018-11-01T03:06:31.845Z,1.27
2018-11-01T03:08:59.352Z,1.10
2018-11-01T03:11:27.112Z,1.40
2018-11-01T03:13:54.635Z,1.37
2018-11-01T03:16:22.163Z,1.20
2018-11-01T03:18:49.783Z,1.00
2018-11-01T03:21:17.324Z,1.23
2018-11-01T03:23:44.912Z,1.60
2018-11-01T03:26:18.258Z,1.40
2018-11-01T03:28:45.824Z,1.30
2018-11-01T03:31:13.502Z,1.60
2018-11-01T03:33:41.011Z,1.10
2018-11-01T03:36:08.590Z,1.43
2018-11-01T03:38:36.302Z,1.57
2018-11-01T03:41:03.832Z,1.40
2018-11-01T03:43:31.361Z,1.60
2018-11-01T03:45:58.884Z,1.37
2018-11-01T03:48:26.477Z,1.52
2018-11-01T03:50:54.021Z,1.40
2018-11-01T03:53:23.781Z,1.20
2018-11-01T03:55:51.345Z,1.50
2018-11-01T03:58:18.883Z,1.55
2018-11-01T04:00:46.453Z,1.43
2018-11-01T04:03:13.978Z,1.60
2018-11-01T04:05:41.619Z,1.40
2018-11-01T04:08:09.142Z,1.40
2018-11-01T04:10:36.715Z,1.53
2018-11-01T04:13:04.335Z,1.70
2018-11-01T04:15:31.928Z,1.57
2018-11-01T04:17:59.446Z,1.80
2018-11-01T04:20:26.962Z,1.80
2018-11-01T04:22:54.546Z,1.80
2018-11-01T04:25:22.250Z,1.60
2018-11-01T04:27:49.850Z,1.60
2018-11-01T04:30:17.343Z,1.73
2018-11-01T04:32:44.905Z,1.40
2018-11-01T04:35:12.420Z,1.57
2018-11-01T04:37:39.957Z,1.70
2018-11-01T04:40:07.539Z,1.37
2018-11-01T04:42:35.094Z,1.60
2018-11-01T04:45:02.632Z,1.60
2018-11-01T04:47:30.347Z,1.70
2018-11-01T04:49:57.815Z,1.40
2018-11-01T04:52:25.403Z,1.55
2018-11-01T04:54:54.193Z,1.93
2018-11-01T04:57:21.703Z,1.80
2018-11-01T04:59:49.296Z,1.60
2018-11-01T05:02:17.278Z,1.70
2018-11-01T05:04:44.822Z,1.87
2018-11-01T05:07:13.334Z,1.70
2018-11-01T05:09:40.842Z,1.70
2018-11-01T05:12:08.588Z,1.87
2018-11-01T05:14:36.114Z,1.67
2018-11-01T05:17:03.708Z,1.70
2018-11-01T05:19:31.271Z,1.87
2018-11-01T05:21:58.950Z,1.77
2018-11-01T05:24:26.525Z,1.70
2018-11-01T05:26:54.109Z,1.90
2018-11-01T05:29:22.804Z,1.80
2018-11-01T05:31:50.361Z,1.53
2018-11-01T05:34:17.984Z,2.00
2018-11-01T05:36:45.515Z,1.80
2018-11-01T05:39:13.126Z,1.80
2018-11-01T05:41:40.839Z,1.80
2018-11-01T05:44:08.373Z,1.90
2018-11-01T05:46:35.902Z,1.80
2018-11-01T05:49:03.481Z,1.90
2018-11-01T05:51:31.002Z,1.87
2018-11-01T05:53:58.588Z,2.00
2018-11-01T05:56:26.140Z,1.80
2018-11-01T05:58:53.711Z,2.00
2018-11-01T06:01:21.392Z,1.90
2018-11-01T06:03:48.951Z,1.90
2018-11-01T06:06:17.010Z,2.00
2018-11-01T06:08:44.526Z,2.00
2018-11-01T06:11:12.207Z,1.87
2018-11-01T06:13:39.749Z,2.30
2018-11-01T06:16:07.358Z,1.83
2018-11-01T06:18:34.874Z,2.07
2018-11-01T06:21:02.451Z,2.03
2018-11-01T06:23:30.042Z,1.90
2018-11-01T06:25:57.604Z,2.20
2018-11-01T06:28:25.166Z,2.07
2018-11-01T06:30:52.702Z,2.40
2018-11-01T06:33:20.273Z,1.90
2018-11-01T06:35:51.685Z,2.20
2018-11-01T06:38:19.270Z,2.10
2018-11-01T06:40:46.786Z,2.40
2018-11-01T06:43:14.348Z,2.13
2018-11-01T06:45:41.869Z,2.00
2018-11-01T06:48:09.423Z,2.20
2018-11-01T06:50:37.970Z,2.20
2018-11-01T06:53:05.541Z,2.10
2018-11-01T06:55:34.111Z,3.03
2018-11-01T06:58:01.662Z,2.00
2018-11-01T07:00:29.198Z,1.87
2018-11-01T07:02:56.781Z,2.33
2018-11-01T07:05:26.446Z,2.20
2018-11-01T07:07:53.986Z,2.22
2018-11-01T07:10:21.567Z,2.20
2018-11-01T07:12:49.129Z,2.17
2018-11-01T07:15:16.707Z,2.13
2018-11-01T07:17:45.349Z,1.93
2018-11-01T07:20:13.589Z,2.17
2018-11-01T07:22:45.009Z,2.40
2018-11-01T07:25:13.704Z,2.13
2018-11-01T07:27:43.426Z,2.27
2018-11-01T07:30:11.006Z,1.80
2018-11-01T07:32:38.835Z,2.00
2018-11-01T07:35:12.188Z,2.20
2018-11-01T07:37:39.840Z,2.20
2018-11-01T07:40:07.750Z,2.00
2018-11-01T07:42:38.809Z,2.30
2018-11-01T07:45:06.408Z,1.77
2018-11-01T07:47:33.975Z,2.40
2018-11-01T07:50:01.550Z,2.40
2018-11-01T07:52:29.371Z,2.00
2018-11-01T07:54:57.066Z,2.20
2018-11-01T07:57:24.670Z,2.37
2018-11-01T07:59:52.206Z,2.23
2018-11-01T08:02:20.850Z,2.50
2018-11-01T08:04:49.510Z,2.33
2018-11-01T08:07:17.262Z,2.10
2018-11-01T08:09:44.853Z,2.03
2018-11-01T08:12:12.436Z,1.93
2018-11-01T08:14:40.171Z,2.20
2018-11-01T08:17:07.794Z,2.13
2018-11-01T08:19:35.477Z,2.17
2018-11-01T08:22:02.956Z,1.93
2018-11-01T08:24:30.572Z,2.10
2018-11-01T08:26:58.157Z,1.90
2018-11-01T08:29:25.785Z,2.20
2018-11-01T08:31:53.370Z,2.20
2018-11-01T08:34:20.922Z,2.10
2018-11-01T08:36:48.515Z,2.10
2018-11-01T08:39:16.317Z,2.30
2018-11-01T08:41:45.080Z,2.33
2018-11-01T08:44:12.699Z,2.20
2018-11-01T08:46:40.274Z,2.10
2018-11-01T08:49:07.835Z,4.17
2018-11-01T08:51:35.390Z,3.30
2018-11-01T08:54:02.958Z,2.70
2018-11-01T08:56:30.500Z,2.87
2018-11-01T08:58:58.069Z,2.50
2018-11-01T09:01:25.575Z,2.80
2018-11-01T09:03:53.146Z,2.30
2018-11-01T09:06:20.681Z,2.30
2018-11-01T09:08:49.480Z,2.83
2018-11-01T09:11:17.224Z,2.30
2018-11-01T09:13:44.783Z,3.13
2018-11-01T09:16:12.486Z,2.20
2018-11-01T09:18:40.077Z,2.50
2018-11-01T09:21:07.623Z,2.43
2018-11-01T09:23:35.346Z,4.10
2018-11-01T09:26:02.865Z,3.00
2018-11-01T09:28:30.447Z,3.40
2018-11-01T09:30:58.019Z,2.73
2018-11-01T09:33:25.526Z,3.50
2018-11-01T09:35:53.161Z,3.97
2018-11-01T09:38:20.634Z,2.57
2018-11-01T09:40:48.294Z,2.40
2018-11-01T09:43:15.822Z,2.37
2018-11-01T09:45:43.464Z,2.43
2018-11-01T09:48:11.041Z,3.30
2018-11-01T09:50:39.257Z,2.40
2018-11-01T09:53:07.359Z,2.67
2018-11-01T09:55:34.933Z,2.50
2018-11-01T09:58:02.656Z,2.73
2018-11-01T10:00:31.289Z,2.33
2018-11-01T10:03:13.019Z,2.33
2018-11-01T10:05:44.863Z,2.30
2018-11-01T10:08:13.378Z,2.70
2018-11-01T10:10:51.725Z,2.30
2018-11-01T10:13:19.499Z,2.50
2018-11-01T10:15:47.220Z,2.40
2018-11-01T10:18:15.000Z,2.30
2018-11-01T10:20:42.379Z,2.33
2018-11-01T10:23:10.835Z,2.70
2018-11-01T10:25:38.366Z,2.37
2018-11-01T10:28:05.946Z,2.80
2018-11-01T10:30:36.586Z,2.50
2018-11-01T10:33:04.137Z,2.30
2018-11-01T10:35:31.679Z,2.70
2018-11-01T10:37:59.303Z,2.30
2018-11-01T10:40:26.914Z,2.40
2018-11-01T10:42:54.493Z,2.13
2018-11-01T10:45:24.633Z,2.23
2018-11-01T10:47:52.284Z,2.40
2018-11-01T10:50:19.903Z,3.37
2018-11-01T10:52:47.516Z,2.60
2018-11-01T10:55:15.151Z,2.93
2018-11-01T10:57:42.757Z,3.43
2018-11-01T11:00:10.464Z,3.20
2018-11-01T11:02:37.938Z,2.57
2018-11-01T11:05:05.564Z,2.40
2018-11-01T11:07:33.267Z,2.43
2018-11-01T11:10:00.856Z,2.93
2018-11-01T11:12:28.577Z,2.70
2018-11-01T11:14:56.418Z,2.93
2018-11-01T11:17:23.977Z,2.77
2018-11-01T11:19:51.805Z,2.63
2018-11-01T11:22:19.289Z,2.60
2018-11-01T11:24:46.850Z,4.90
2018-11-01T11:27:16.915Z,2.80
2018-11-01T11:29:44.448Z,2.90
2018-11-01T11:32:12.242Z,3.10
2018-11-01T11:34:39.931Z,2.70
2018-11-01T11:37:07.503Z,2.60
2018-11-01T11:39:35.214Z,2.80
2018-11-01T11:42:02.685Z,2.93
2018-11-01T11:44:30.438Z,2.40
2018-11-01T11:46:57.955Z,2.60
2018-11-01T11:49:25.700Z,2.67
2018-11-01T11:51:53.306Z,3.10
2018-11-01T11:54:20.948Z,2.53
2018-11-01T11:56:48.520Z,2.47
2018-11-01T11:59:16.244Z,2.53
2018-11-01T12:01:43.772Z,2.97
2018-11-01T12:04:11.383Z,2.70
2018-11-01T12:06:39.588Z,2.67
2018-11-01T12:09:07.110Z,2.80
2018-11-01T12:11:34.736Z,2.63
2018-11-01T12:14:02.386Z,2.90
2018-11-01T12:16:29.911Z,3.17
2018-11-01T12:18:57.547Z,2.90
2018-11-01T12:21:25.148Z,3.20
2018-11-01T12:23:52.819Z,3.30
2018-11-01T12:26:20.349Z,3.13
2018-11-01T12:28:48.087Z,3.25
2018-11-01T12:31:15.800Z,3.17
2018-11-01T12:33:43.650Z,2.93
2018-11-01T12:36:11.350Z,2.93
2018-11-01T12:38:39.110Z,3.30
2018-11-01T12:41:06.644Z,2.73
2018-11-01T12:43:34.370Z,2.92
2018-11-01T12:46:02.107Z,2.93
2018-11-01T12:48:29.656Z,2.75
2018-11-01T12:50:57.248Z,2.37
2018-11-01T12:53:24.986Z,2.77
2018-11-01T12:55:52.626Z,2.63
2018-11-01T12:58:20.201Z,2.97
2018-11-01T13:00:47.824Z,2.60
2018-11-01T13:03:15.396Z,2.93
2018-11-01T13:05:43.003Z,2.85
2018-11-01T13:08:10.797Z,2.83
2018-11-01T13:10:38.541Z,3.33
2018-11-01T13:13:06.283Z,2.90
2018-11-01T13:15:33.928Z,3.07
2018-11-01T13:18:01.543Z,3.80
2018-11-01T13:20:29.363Z,3.13
2018-11-01T13:22:57.194Z,3.60
2018-11-01T13:25:24.853Z,3.87
2018-11-01T13:27:52.684Z,3.60
2018-11-01T13:33:03.208Z,3.63
2018-11-01T13:35:30.980Z,3.20
2018-11-01T13:37:58.761Z,3.67
2018-11-01T13:40:26.965Z,3.45
2018-11-01T13:42:54.249Z,3.40
2018-11-01T13:45:21.972Z,4.37
2018-11-01T13:47:49.640Z,3.80
2018-11-01T13:50:18.153Z,3.30
2018-11-01T13:52:48.687Z,3.50
2018-11-01T13:55:16.492Z,3.50
2018-11-01T13:57:44.222Z,3.57
2018-11-01T14:00:11.810Z,3.37
2018-11-01T14:02:39.432Z,3.60
2018-11-01T14:05:07.242Z,3.77
2018-11-01T14:07:35.027Z,4.00
2018-11-01T14:10:06.542Z,4.03
2018-11-01T14:12:34.376Z,3.80
2018-11-01T14:15:02.625Z,3.90
2018-11-01T14:17:29.983Z,4.10
2018-11-01T14:19:58.926Z,3.90
2018-11-01T14:22:26.574Z,4.60
2018-11-01T14:24:54.369Z,4.70
2018-11-01T14:27:21.980Z,4.13
2018-11-01T14:29:49.592Z,4.07
2018-11-01T14:32:17.177Z,4.23
2018-11-01T14:34:45.757Z,4.00
2018-11-01T14:37:13.304Z,4.10
2018-11-01T14:39:40.847Z,4.43
2018-11-01T14:42:11.498Z,4.60
2018-11-01T14:44:39.141Z,4.47
2018-11-01T14:47:06.848Z,5.47
2018-11-01T14:49:34.392Z,4.73
2018-11-01T14:52:02.431Z,4.90
2018-11-01T14:54:31.043Z,4.83
2018-11-01T14:56:59.238Z,4.13
2018-11-01T14:59:26.358Z,5.20
2018-11-01T15:01:54.485Z,5.40
2018-11-01T15:04:22.316Z,5.77
2018-11-01T15:06:51.046Z,5.00
2018-11-01T15:09:18.529Z,4.50
2018-11-01T15:11:46.102Z,4.60
2018-11-01T15:14:13.698Z,4.30
2018-11-01T15:16:41.408Z,4.50
2018-11-01T15:19:09.253Z,4.43
2018-11-01T15:21:37.286Z,4.20
2018-11-01T15:24:04.913Z,4.73
2018-11-01T15:26:32.696Z,4.70
2018-11-01T15:29:00.231Z,4.57
2018-11-01T15:31:27.995Z,4.50
2018-11-01T15:33:55.917Z,4.33
2018-11-01T15:36:26.075Z,4.85
2018-11-01T15:38:53.696Z,4.70
2018-11-01T15:41:21.485Z,5.30
2018-11-01T15:43:49.131Z,4.90
2018-11-01T15:46:17.400Z,5.50
2018-11-01T15:48:45.047Z,5.27
2018-11-01T15:51:12.587Z,5.00
2018-11-01T15:53:40.137Z,5.13
2018-11-01T15:56:07.746Z,5.00
2018-11-01T15:58:35.317Z,5.60
2018-11-01T16:01:02.981Z,5.17
2018-11-01T16:03:30.600Z,4.87
2018-11-01T16:05:58.186Z,4.97
2018-11-01T16:08:25.720Z,4.50
2018-11-01T16:10:53.280Z,5.43
2018-11-01T16:13:20.857Z,5.00
2018-11-01T16:15:48.450Z,4.78
2018-11-01T16:18:16.022Z,4.43
2018-11-01T16:20:43.563Z,4.93
2018-11-01T16:23:11.193Z,4.37
2018-11-01T16:25:38.699Z,4.73
2018-11-01T16:28:06.267Z,4.40
2018-11-01T16:30:33.864Z,4.27
2018-11-01T16:33:01.516Z,4.70
2018-11-01T16:35:29.036Z,5.07
2018-11-01T16:37:56.631Z,4.47
2018-11-01T16:40:24.166Z,4.53
2018-11-01T16:42:51.777Z,5.20
2018-11-01T16:45:19.490Z,5.13
2018-11-01T16:47:46.907Z,4.97
2018-11-01T16:50:14.614Z,4.53
2018-11-01T16:52:42.175Z,5.30
2018-11-01T16:55:09.710Z,5.00
2018-11-01T16:57:37.282Z,5.47
2018-11-01T17:00:04.862Z,5.27
2018-11-01T17:02:32.417Z,5.00
2018-11-01T17:04:59.943Z,5.20
2018-11-01T17:07:27.571Z,5.53
2018-11-01T17:09:55.110Z,5.10
2018-11-01T17:12:22.654Z,5.53
2018-11-01T17:14:50.202Z,5.27
2018-11-01T17:17:17.782Z,4.83
2018-11-01T17:19:45.304Z,4.83
2018-11-01T17:22:12.863Z,5.23
2018-11-01T17:24:40.395Z,5.07
2018-11-01T17:27:08.049Z,4.30
2018-11-01T17:29:35.674Z,4.70
2018-11-01T17:32:03.243Z,4.95
2018-11-01T17:34:30.853Z,5.53
2018-11-01T17:36:58.459Z,4.67
2018-11-01T17:39:25.993Z,5.00
2018-11-01T17:41:53.705Z,5.10
2018-11-01T17:44:21.252Z,4.50
2018-11-01T17:46:48.850Z,5.10
2018-11-01T17:49:16.379Z,4.93
2018-11-01T17:51:43.953Z,5.10
2018-11-01T17:54:11.548Z,5.23
2018-11-01T17:56:39.097Z,5.10
2018-11-01T17:59:06.682Z,5.93
2018-11-01T18:01:34.282Z,5.27
2018-11-01T18:04:01.793Z,5.13
2018-11-01T18:06:29.360Z,5.63
2018-11-01T18:08:57.004Z,5.20
2018-11-01T18:11:24.521Z,5.60
2018-11-01T18:13:52.086Z,5.10
2018-11-01T18:16:19.684Z,5.00
2018-11-01T18:18:47.248Z,5.00
2018-11-01T18:21:14.755Z,5.13
2018-11-01T18:23:42.333Z,4.70
2018-11-01T18:26:09.858Z,5.13
2018-11-01T18:28:37.499Z,5.17
2018-11-01T18:31:05.014Z,5.07
2018-11-01T18:33:32.609Z,5.20
2018-11-01T18:36:00.229Z,4.43
2018-11-01T18:38:27.986Z,4.73
2018-11-01T18:40:55.559Z,4.83
2018-11-01T18:43:23.162Z,5.85
2018-11-01T18:45:50.739Z,4.30
2018-11-01T18:48:18.284Z,4.90
2018-11-01T18:50:45.933Z,4.63
2018-11-01T18:53:13.507Z,4.50
2018-11-01T18:55:41.105Z,4.17
2018-11-01T18:58:08.646Z,4.60
2018-11-01T19:00:36.345Z,4.33
2018-11-01T19:03:03.833Z,4.20
2018-11-01T19:05:31.426Z,4.30
2018-11-01T19:07:59.003Z,4.60
2018-11-01T19:10:26.903Z,4.03
2018-11-01T19:12:54.539Z,4.43
2018-11-01T19:15:22.278Z,4.73
2018-11-01T19:17:49.909Z,4.80
2018-11-01T19:20:17.472Z,4.80
2018-11-01T19:22:45.071Z,5.03
2018-11-01T19:25:12.797Z,5.10
2018-11-01T19:27:40.396Z,4.57
2018-11-01T19:30:08.133Z,4.67
2018-11-01T19:32:35.856Z,4.90
2018-11-01T19:35:03.610Z,4.60
2018-11-01T19:37:31.175Z,4.40
2018-11-01T19:39:58.826Z,4.37
2018-11-01T19:42:26.356Z,5.07
2018-11-01T19:44:54.023Z,5.13
2018-11-01T19:47:21.566Z,4.67
2018-11-01T19:49:49.235Z,4.83
2018-11-01T19:52:17.136Z,4.60
2018-11-01T19:54:44.856Z,4.80
2018-11-01T19:57:12.402Z,5.33
2018-11-01T19:59:39.954Z,5.17
2018-11-01T20:02:11.121Z,4.80
2018-11-01T20:04:38.680Z,5.27
2018-11-01T20:07:06.359Z,4.90
2018-11-01T20:09:33.952Z,4.53
2018-11-01T20:12:01.491Z,4.93
2018-11-01T20:14:29.413Z,5.22
2018-11-01T20:16:57.165Z,4.07
2018-11-01T20:19:24.956Z,4.77
2018-11-01T20:21:52.406Z,5.20
2018-11-01T20:24:19.983Z,4.97
2018-11-01T20:26:47.533Z,5.23
2018-11-01T20:29:15.095Z,6.13
2018-11-01T20:31:42.669Z,5.00
2018-11-01T20:34:10.270Z,5.07
2018-11-01T20:36:37.819Z,5.53
2018-11-01T20:39:05.463Z,5.60
2018-11-01T20:41:34.146Z,5.60
2018-11-01T20:44:01.777Z,5.40
2018-11-01T20:46:29.712Z,5.10
2018-11-01T20:48:57.296Z,5.00
2018-11-01T20:51:24.844Z,5.27
2018-11-01T20:53:52.429Z,6.20
2018-11-01T20:56:20.057Z,5.43
2018-11-01T20:58:47.624Z,5.33
2018-11-01T21:01:17.270Z,5.90
2018-11-01T21:03:44.858Z,5.63
2018-11-01T21:06:12.416Z,6.00
2018-11-01T21:08:40.094Z,6.03
2018-11-01T21:11:07.819Z,5.80
2018-11-01T21:13:35.434Z,5.67
2018-11-01T21:16:02.983Z,5.63
2018-11-01T21:18:30.564Z,5.90
2018-11-01T21:20:58.152Z,6.23
2018-11-01T21:23:25.790Z,7.00
2018-11-01T21:25:53.440Z,7.00
2018-11-01T21:28:21.006Z,6.90
2018-11-01T21:30:48.606Z,7.13
2018-11-01T21:33:16.216Z,6.90
2018-11-01T21:35:43.864Z,7.20
2018-11-01T21:38:11.572Z,7.20
2018-11-01T21:40:39.220Z,3.97
2018-11-01T21:43:08.041Z,7.47
2018-11-01T21:45:35.673Z,8.07
2018-11-01T21:48:03.288Z,7.80
2018-11-01T21:50:30.982Z,7.87
2018-11-01T21:52:58.605Z,7.53
2018-11-01T21:55:27.150Z,7.80
2018-11-01T21:57:54.890Z,7.50
2018-11-01T22:00:22.491Z,8.32
2018-11-01T22:02:50.064Z,7.43
2018-11-01T22:05:17.613Z,8.50
2018-11-01T22:07:45.267Z,7.90
2018-11-01T22:10:12.839Z,7.67
2018-11-01T22:12:40.344Z,8.13
2018-11-01T22:15:07.933Z,7.20
2018-11-01T22:17:35.518Z,7.57
2018-11-01T22:20:03.060Z,8.43
2018-11-01T22:22:30.617Z,7.20
2018-11-01T22:24:58.217Z,7.73
2018-11-01T22:27:25.754Z,6.30
2018-11-01T22:29:53.455Z,7.60
2018-11-01T22:32:21.045Z,7.80
2018-11-01T22:34:49.010Z,7.53
2018-11-01T22:37:17.286Z,7.20
2018-11-01T22:39:44.841Z,7.27
2018-11-01T22:42:12.387Z,7.27
2018-11-01T22:44:40.779Z,7.03
2018-11-01T22:47:08.390Z,7.40
2018-11-01T22:49:36.569Z,6.90
2018-11-01T22:52:04.230Z,6.70
2018-11-01T22:54:31.790Z,7.37
2018-11-01T22:56:59.438Z,6.40
2018-11-01T22:59:27.034Z,6.73
2018-11-01T23:01:55.927Z,7.93
2018-11-01T23:04:24.007Z,7.35
2018-11-01T23:06:51.581Z,6.60
2018-11-01T23:09:19.111Z,6.37
2018-11-01T23:11:46.671Z,7.10
2018-11-01T23:14:14.192Z,6.30
2018-11-01T23:16:42.093Z,6.90
2018-11-01T23:19:09.674Z,7.33
2018-11-01T23:21:37.220Z,7.03
2018-11-01T23:24:04.805Z,6.73
2018-11-01T23:26:32.462Z,6.93
2018-11-01T23:28:59.985Z,6.37
2018-11-01T23:31:27.872Z,6.37
2018-11-01T23:33:55.430Z,6.30
2018-11-01T23:36:22.656Z,5.35
2018-11-01T23:38:55.775Z,6.17
2018-11-01T23:41:29.042Z,5.93
2018-11-01T23:44:02.200Z,5.63
2018-11-01T23:46:35.480Z,5.70
2018-11-01T23:49:03.036Z,5.63
2018-11-01T23:51:30.661Z,5.23
2018-11-01T23:53:58.224Z,5.40
2018-11-01T23:56:25.820Z,4.95
2018-11-01T23:58:53.413Z,5.30
